Time,TemperatureF,DewpointF,PressureIn,WindDirection,WindDirectionDegrees,WindSpeedMPH,WindSpeedGustMPH,Humidity,HourlyPrecipIn,Conditions,Clouds,dailyrainin,SolarRadiationWatts/m^2,SoftwareType,DateUTC
2014-02-11 00:00:00,9.0,6.0,-100.00,SW,225,1.0,-999.0,85,-99.99,,,-99.99,0.000000,,2014-02-11 05:00:00,
2014-02-11 00:43:00,9.0,6.0,-100.00,SW,225,1.0,-999.0,85,-99.99,,,-99.99,0.000000,,2014-02-11 05:43:00,
2014-02-11 00:53:00,9.0,6.0,-100.00,SW,225,1.0,-999.0,85,-99.99,,,-99.99,0.000000,,2014-02-11 05:53:00,
2014-02-11 01:00:00,10.0,5.0,-100.00,WNW,292,2.0,-999.0,80,-99.99,,,-99.99,0.000000,,2014-02-11 06:00:00,
2014-02-11 01:42:00,10.0,5.0,-100.00,WNW,292,2.0,-999.0,80,-99.99,,,-99.99,0.000000,,2014-02-11 06:42:00,
2014-02-11 01:52:00,10.0,5.0,-100.00,WNW,292,2.0,-999.0,80,-99.99,,,-99.99,0.000000,,2014-02-11 06:52:00,
2014-02-11 02:00:00,10.0,6.0,-100.00,West,270,2.0,-999.0,83,-99.99,,,-99.99,0.000000,,2014-02-11 07:00:00,
2014-02-11 02:42:00,10.0,6.0,-100.00,West,270,2.0,-999.0,83,-99.99,,,-99.99,0.000000,,2014-02-11 07:42:00,
2014-02-11 02:52:00,10.0,6.0,-100.00,West,270,2.0,-999.0,83,-99.99,,,-99.99,0.000000,,2014-02-11 07:52:00,
2014-02-11 03:00:00,10.0,6.0,-100.00,WSW,247,2.0,-999.0,84,-99.99,,,-99.99,0.000000,,2014-02-11 08:00:00,
2014-02-11 03:42:00,10.0,6.0,-100.00,WSW,247,2.0,-999.0,84,-99.99,,,-99.99,0.000000,,2014-02-11 08:42:00,
2014-02-11 03:53:00,10.0,6.0,-100.00,WSW,247,2.0,-999.0,84,-99.99,,,-99.99,0.000000,,2014-02-11 08:53:00,
2014-02-11 04:00:00,9.0,6.0,-100.00,West,270,1.0,-999.0,85,-99.99,,,-99.99,0.000000,,2014-02-11 09:00:00,
2014-02-11 04:43:00,9.0,6.0,-100.00,West,270,1.0,-999.0,85,-99.99,,,-99.99,0.000000,,2014-02-11 09:43:00,
2014-02-11 04:53:00,9.0,6.0,-100.00,West,270,1.0,-999.0,85,-99.99,,,-99.99,0.000000,,2014-02-11 09:53:00,
2014-02-11 05:00:00,8.0,5.0,-100.00,NE,45,1.0,-999.0,86,-99.99,,,-99.99,0.000000,,2014-02-11 10:00:00,
2014-02-11 05:43:00,8.0,5.0,-100.00,NE,45,1.0,-999.0,86,-99.99,,,-99.99,0.000000,,2014-02-11 10:43:00,
2014-02-11 05:53:00,8.0,5.0,-100.00,NE,45,1.0,-999.0,86,-99.99,,,-99.99,0.000000,,2014-02-11 10:53:00,
2014-02-11 06:00:00,7.0,4.0,-100.00,ESE,112,1.0,-999.0,85,-99.99,,,-99.99,0.000000,,2014-02-11 11:00:00,
2014-02-11 06:43:00,7.0,4.0,-100.00,ESE,112,1.0,-999.0,85,-99.99,,,-99.99,0.000000,,2014-02-11 11:43:00,
2014-02-11 06:53:00,7.0,4.0,-100.00,ESE,112,1.0,-999.0,85,-99.99,,,-99.99,0.000000,,2014-02-11 11:53:00,
2014-02-11 07:00:00,3.0,0.0,-100.00,North,-999,0.0,-999.0,84,-99.99,,,-99.99,0.000000,,2014-02-11 12:00:00,
2014-02-11 07:42:00,3.0,0.0,-100.00,North,-999,0.0,-999.0,84,-99.99,,,-99.99,0.000000,,2014-02-11 12:42:00,
2014-02-11 07:52:00,3.0,0.0,-100.00,North,-999,0.0,-999.0,84,-99.99,,,-99.99,0.000000,,2014-02-11 12:52:00,
2014-02-11 08:00:00,4.0,1.0,-100.00,ESE,112,1.0,-999.0,86,-99.99,,,-99.99,1.160000,,2014-02-11 13:00:00,
2014-02-11 08:42:00,4.0,1.0,-100.00,ESE,112,1.0,-999.0,86,-99.99,,,-99.99,1.160000,,2014-02-11 13:42:00,
2014-02-11 08:52:00,4.0,1.0,-100.00,ESE,112,1.0,-999.0,86,-99.99,,,-99.99,1.160000,,2014-02-11 13:52:00,
2014-02-11 09:00:00,5.0,2.0,-100.00,SE,135,1.0,-999.0,86,-99.99,,,-99.99,34.799999,,2014-02-11 14:00:00,
2014-02-11 09:42:00,5.0,2.0,-100.00,SE,135,1.0,-999.0,86,-99.99,,,-99.99,34.799999,,2014-02-11 14:42:00,
2014-02-11 09:52:00,5.0,2.0,-100.00,SE,135,1.0,-999.0,86,-99.99,,,-99.99,34.799999,,2014-02-11 14:52:00,
2014-02-11 10:00:00,8.0,3.0,-100.00,SSE,157,3.0,-999.0,80,-99.99,,,-99.99,100.919998,,2014-02-11 15:00:00,
2014-02-11 10:44:00,8.0,3.0,-100.00,SSE,157,3.0,-999.0,80,-99.99,,,-99.99,100.919998,,2014-02-11 15:44:00,
2014-02-11 10:53:00,8.0,3.0,-100.00,SSE,157,3.0,-999.0,80,-99.99,,,-99.99,100.919998,,2014-02-11 15:53:00,
2014-02-11 11:00:00,11.0,3.0,-100.00,South,180,5.0,-999.0,69,-99.99,,,-99.99,197.199997,,2014-02-11 16:00:00,
2014-02-11 11:43:00,11.0,3.0,-100.00,South,180,5.0,-999.0,69,-99.99,,,-99.99,197.199997,,2014-02-11 16:43:00,
2014-02-11 11:53:00,11.0,3.0,-100.00,South,180,5.0,-999.0,69,-99.99,,,-99.99,197.199997,,2014-02-11 16:53:00,
2014-02-11 12:00:00,13.0,3.0,-100.00,South,180,5.0,-999.0,63,-99.99,,,-99.99,313.200012,,2014-02-11 17:00:00,
2014-02-11 12:42:00,13.0,3.0,-100.00,South,180,5.0,-999.0,63,-99.99,,,-99.99,313.200012,,2014-02-11 17:42:00,
2014-02-11 12:52:00,13.0,3.0,-100.00,South,180,5.0,-999.0,63,-99.99,,,-99.99,313.200012,,2014-02-11 17:52:00,
2014-02-11 13:00:00,14.0,2.0,-100.00,SSW,202,5.0,-999.0,59,-99.99,,,-99.99,381.640015,,2014-02-11 18:00:00,
2014-02-11 13:43:00,14.0,2.0,-100.00,SSW,202,5.0,-999.0,59,-99.99,,,-99.99,381.640015,,2014-02-11 18:43:00,
2014-02-11 13:53:00,14.0,2.0,-100.00,SSW,202,5.0,-999.0,59,-99.99,,,-99.99,381.640015,,2014-02-11 18:53:00,
2014-02-11 14:00:00,15.0,2.0,-100.00,SSW,202,4.0,-999.0,55,-99.99,,,-99.99,436.160004,,2014-02-11 19:00:00,
2014-02-11 14:42:00,15.0,2.0,-100.00,SSW,202,4.0,-999.0,55,-99.99,,,-99.99,436.160004,,2014-02-11 19:42:00,
2014-02-11 14:53:00,15.0,2.0,-100.00,SSW,202,4.0,-999.0,55,-99.99,,,-99.99,436.160004,,2014-02-11 19:53:00,
2014-02-11 15:00:00,17.0,3.0,-100.00,SW,225,3.0,-999.0,53,-99.99,,,-99.99,401.359985,,2014-02-11 20:00:00,
2014-02-11 15:42:00,17.0,3.0,-100.00,SW,225,3.0,-999.0,53,-99.99,,,-99.99,401.359985,,2014-02-11 20:42:00,
2014-02-11 15:52:00,17.0,3.0,-100.00,SW,225,3.0,-999.0,53,-99.99,,,-99.99,401.359985,,2014-02-11 20:52:00,
2014-02-11 16:00:00,17.0,2.0,-100.00,WSW,247,3.0,-999.0,50,-99.99,,,-99.99,348.000000,,2014-02-11 21:00:00,
2014-02-11 16:44:00,17.0,2.0,-100.00,WSW,247,3.0,-999.0,50,-99.99,,,-99.99,348.000000,,2014-02-11 21:44:00,
2014-02-11 16:54:00,17.0,2.0,-100.00,WSW,247,3.0,-999.0,50,-99.99,,,-99.99,348.000000,,2014-02-11 21:54:00,
2014-02-11 17:00:00,16.0,2.0,-100.00,SSW,202,4.0,-999.0,51,-99.99,,,-99.99,238.960007,,2014-02-11 22:00:00,
2014-02-11 17:43:00,16.0,2.0,-100.00,SSW,202,4.0,-999.0,51,-99.99,,,-99.99,238.960007,,2014-02-11 22:43:00,
2014-02-11 17:53:00,16.0,2.0,-100.00,SSW,202,4.0,-999.0,51,-99.99,,,-99.99,238.960007,,2014-02-11 22:53:00,
2014-02-11 18:00:00,15.0,1.0,-100.00,South,180,3.0,-999.0,53,-99.99,,,-99.99,82.360001,,2014-02-11 23:00:00,
2014-02-11 18:42:00,15.0,1.0,-100.00,South,180,3.0,-999.0,53,-99.99,,,-99.99,82.360001,,2014-02-11 23:42:00,
2014-02-11 18:53:00,15.0,1.0,-100.00,South,180,3.0,-999.0,53,-99.99,,,-99.99,82.360001,,2014-02-11 23:53:00,
2014-02-11 19:00:00,9.0,-1.0,-100.00,South,180,1.0,-999.0,64,-99.99,,,-99.99,2.320000,,2014-02-12 00:00:00,
2014-02-11 19:42:00,9.0,-1.0,-100.00,South,180,1.0,-999.0,64,-99.99,,,-99.99,2.320000,,2014-02-12 00:42:00,
2014-02-11 19:52:00,9.0,-1.0,-100.00,South,180,1.0,-999.0,64,-99.99,,,-99.99,2.320000,,2014-02-12 00:52:00,
2014-02-11 20:00:00,3.0,-2.0,-100.00,SE,135,1.0,-999.0,76,-99.99,,,-99.99,0.000000,,2014-02-12 01:00:00,
2014-02-11 20:42:00,3.0,-2.0,-100.00,SE,135,1.0,-999.0,76,-99.99,,,-99.99,0.000000,,2014-02-12 01:42:00,
2014-02-11 20:52:00,3.0,-2.0,-100.00,SE,135,1.0,-999.0,76,-99.99,,,-99.99,0.000000,,2014-02-12 01:52:00,
2014-02-11 21:00:00,0.0,-3.0,-100.00,ESE,112,1.0,-999.0,83,-99.99,,,-99.99,0.000000,,2014-02-12 02:00:00,
2014-02-11 21:42:00,0.0,-3.0,-100.00,ESE,112,1.0,-999.0,83,-99.99,,,-99.99,0.000000,,2014-02-12 02:42:00,
2014-02-11 21:52:00,0.0,-3.0,-100.00,ESE,112,1.0,-999.0,83,-99.99,,,-99.99,0.000000,,2014-02-12 02:52:00,
2014-02-11 22:00:00,0.0,-4.0,-100.00,SE,135,1.0,-999.0,83,-99.99,,,-99.99,0.000000,,2014-02-12 03:00:00,
2014-02-11 22:43:00,0.0,-4.0,-100.00,SE,135,1.0,-999.0,83,-99.99,,,-99.99,0.000000,,2014-02-12 03:43:00,
2014-02-11 22:54:00,0.0,-4.0,-100.00,SE,135,1.0,-999.0,83,-99.99,,,-99.99,0.000000,,2014-02-12 03:54:00,
2014-02-11 23:00:00,0.0,-4.0,-100.00,SSE,157,1.0,-999.0,84,-99.99,,,-99.99,0.000000,,2014-02-12 04:00:00,
2014-02-11 23:43:00,0.0,-4.0,-100.00,SSE,157,1.0,-999.0,84,-99.99,,,-99.99,0.000000,,2014-02-12 04:43:00,
2014-02-11 23:53:00,0.0,-4.0,-100.00,SSE,157,1.0,-999.0,84,-99.99,,,-99.99,0.000000,,2014-02-12 04:53:00,